createdAt,value
2023-01-19T00:03:04.564Z,2.13
2023-01-19T00:08:14.925Z,2.11
2023-01-19T00:13:17.395Z,2.06
2023-01-19T00:18:19.752Z,1.86
2023-01-19T00:23:22.007Z,2.04
2023-01-19T00:28:24.053Z,2.02
2023-01-19T00:33:26.175Z,1.99
2023-01-19T00:38:28.289Z,2.01
2023-01-19T00:43:30.407Z,1.98
2023-01-19T00:48:32.571Z,1.99
2023-01-19T00:53:34.793Z,2.00
2023-01-19T00:58:36.940Z,1.98
2023-01-19T01:03:39.037Z,2.02
2023-01-19T01:08:41.151Z,1.99
2023-01-19T01:13:44.334Z,1.95
2023-01-19T01:18:46.701Z,2.00
2023-01-19T01:23:48.834Z,2.12
2023-01-19T01:28:50.966Z,2.00
2023-01-19T01:33:53.077Z,1.97
2023-01-19T01:38:55.237Z,1.93
2023-01-19T01:43:58.989Z,1.94
2023-01-19T01:49:07.833Z,1.93
2023-01-19T01:54:26.132Z,1.98
2023-01-19T01:59:34.958Z,1.99
2023-01-19T02:04:38.525Z,2.00
2023-01-19T02:09:59.565Z,1.84
2023-01-19T02:15:01.647Z,1.82
2023-01-19T02:20:05.448Z,1.80
2023-01-19T02:25:07.850Z,1.68
2023-01-19T02:30:10.998Z,1.78
2023-01-19T02:35:13.383Z,1.76
2023-01-19T02:40:22.203Z,1.75
2023-01-19T02:45:24.725Z,1.73
2023-01-19T02:50:52.318Z,1.83
2023-01-19T02:56:03.849Z,1.90
2023-01-19T03:01:24.079Z,1.96
2023-01-19T03:06:44.788Z,1.98
2023-01-19T03:11:54.379Z,1.93
2023-01-19T03:17:02.700Z,1.87
2023-01-19T03:22:09.846Z,1.89
2023-01-19T03:27:25.511Z,1.94
2023-01-19T03:32:36.305Z,1.91
2023-01-19T03:37:43.363Z,1.96
2023-01-19T03:42:46.377Z,1.96
2023-01-19T03:47:48.855Z,1.96
2023-01-19T03:53:13.988Z,2.17
2023-01-19T03:58:16.029Z,2.01
2023-01-19T04:03:18.515Z,2.00
2023-01-19T04:08:20.561Z,2.05
2023-01-19T04:13:22.680Z,2.03
2023-01-19T04:18:24.754Z,2.12
2023-01-19T04:23:27.114Z,2.15
2023-01-19T04:28:29.633Z,2.17
2023-01-19T04:33:31.744Z,2.03
2023-01-19T04:38:33.901Z,2.18
2023-01-19T04:43:35.975Z,2.29
2023-01-19T04:48:38.056Z,2.24
2023-01-19T04:53:40.191Z,2.24
2023-01-19T04:58:42.261Z,2.30
2023-01-19T05:03:44.292Z,2.17
2023-01-19T05:08:46.367Z,2.43
2023-01-19T05:13:50.221Z,2.42
2023-01-19T05:18:53.008Z,2.46
2023-01-19T05:23:55.180Z,2.33
2023-01-19T05:28:57.387Z,2.43
2023-01-19T05:33:59.454Z,2.49
2023-01-19T05:39:01.578Z,2.54
2023-01-19T05:44:03.757Z,2.52
2023-01-19T05:49:07.503Z,2.62
2023-01-19T05:54:10.169Z,2.61
2023-01-19T05:59:13.348Z,2.69
2023-01-19T06:04:15.376Z,2.72
2023-01-19T06:09:18.394Z,2.73
2023-01-19T06:14:20.439Z,2.78
2023-01-19T06:19:22.490Z,2.86
2023-01-19T06:24:25.369Z,2.88
2023-01-19T06:29:28.744Z,2.95
2023-01-19T06:34:31.518Z,3.05
2023-01-19T06:39:33.628Z,3.07
2023-01-19T06:44:35.689Z,3.10
2023-01-19T06:49:37.771Z,3.16
2023-01-19T06:54:40.004Z,3.15
2023-01-19T06:59:42.181Z,3.18
2023-01-19T07:04:44.252Z,3.38
2023-01-19T07:09:46.320Z,3.24
2023-01-19T07:14:50.444Z,3.26
2023-01-19T07:19:52.521Z,3.30
2023-01-19T07:24:54.678Z,3.43
2023-01-19T07:29:56.884Z,3.38
2023-01-19T07:34:58.993Z,3.42
2023-01-19T07:40:01.274Z,3.29
2023-01-19T07:45:05.867Z,3.27
2023-01-19T07:50:08.685Z,3.33
2023-01-19T07:55:10.840Z,3.32
2023-01-19T08:00:14.574Z,3.43
2023-01-19T08:05:18.473Z,3.46
2023-01-19T08:10:23.063Z,3.37
2023-01-19T08:15:25.793Z,3.45
2023-01-19T08:20:29.016Z,3.44
2023-01-19T08:25:39.595Z,3.48
2023-01-19T08:30:44.387Z,3.49
2023-01-19T08:35:50.367Z,3.49
2023-01-19T08:40:52.423Z,3.53
2023-01-19T08:45:56.534Z,3.59
2023-01-19T08:50:59.433Z,3.59
2023-01-19T08:56:02.332Z,3.63
2023-01-19T09:01:04.694Z,3.69
2023-01-19T09:06:07.872Z,3.66
2023-01-19T09:11:11.524Z,3.69
2023-01-19T09:16:15.275Z,3.67
2023-01-19T09:21:18.652Z,3.71
2023-01-19T09:26:22.408Z,3.67
2023-01-19T09:31:24.671Z,3.64
2023-01-19T09:36:26.782Z,3.55
2023-01-19T09:41:29.759Z,3.53
2023-01-19T09:46:41.754Z,3.54
2023-01-19T09:51:47.202Z,3.41
2023-01-19T09:56:52.693Z,3.36
2023-01-19T10:02:25.651Z,3.43
2023-01-19T10:07:55.043Z,3.41
2023-01-19T10:13:19.243Z,3.36
2023-01-19T10:18:26.737Z,3.34
2023-01-19T10:23:45.753Z,3.41
2023-01-19T10:28:51.394Z,3.31
2023-01-19T10:33:54.600Z,3.35
2023-01-19T10:38:56.716Z,3.27
2023-01-19T10:44:02.024Z,3.32
2023-01-19T10:49:04.980Z,3.28
2023-01-19T10:54:13.272Z,3.34
2023-01-19T10:59:34.902Z,3.42
2023-01-19T11:04:36.997Z,3.28
2023-01-19T11:09:39.050Z,3.23
2023-01-19T11:14:41.224Z,3.22
2023-01-19T11:19:43.547Z,3.27
2023-01-19T11:24:45.741Z,3.27
2023-01-19T11:30:00.914Z,3.31
2023-01-19T11:35:30.810Z,3.33
2023-01-19T11:40:35.290Z,3.25
2023-01-19T11:45:37.731Z,3.18
2023-01-19T11:50:43.982Z,3.25
2023-01-19T11:55:51.018Z,3.03
2023-01-19T12:01:23.191Z,3.30
2023-01-19T12:06:33.075Z,3.09
2023-01-19T12:11:40.621Z,3.05
2023-01-19T12:16:44.110Z,3.01
2023-01-19T12:21:49.404Z,3.02
2023-01-19T12:26:58.886Z,3.05
2023-01-19T12:32:22.036Z,3.11
2023-01-19T12:37:39.276Z,3.15
2023-01-19T12:42:47.114Z,3.01
2023-01-19T12:47:54.051Z,2.98
2023-01-19T12:53:02.001Z,2.90
2023-01-19T12:58:12.958Z,2.91
2023-01-19T13:03:17.808Z,2.74
2023-01-19T13:08:22.666Z,2.83
2023-01-19T13:13:24.666Z,2.81
2023-01-19T13:18:29.905Z,2.86
2023-01-19T13:23:47.218Z,2.96
2023-01-19T13:28:53.318Z,2.90
2023-01-19T13:33:58.300Z,2.89
2023-01-19T13:39:04.071Z,2.90
2023-01-19T13:44:19.275Z,2.92
2023-01-19T13:49:30.486Z,2.95
2023-01-19T13:54:32.561Z,2.86
2023-01-19T13:59:34.634Z,2.74
2023-01-19T14:04:36.791Z,2.82
2023-01-19T14:09:39.951Z,2.74
2023-01-19T14:14:45.200Z,2.88
2023-01-19T14:19:51.464Z,2.70
2023-01-19T14:24:53.516Z,2.70
2023-01-19T14:30:19.012Z,2.82
2023-01-19T14:35:25.539Z,2.72
2023-01-19T14:40:27.743Z,2.67
2023-01-19T14:45:42.820Z,2.73
2023-01-19T14:51:02.071Z,2.68
2023-01-19T14:56:06.912Z,2.74
2023-01-19T15:01:09.343Z,2.74
2023-01-19T15:06:17.045Z,2.83
2023-01-19T15:11:28.583Z,2.81
2023-01-19T15:16:34.242Z,2.82
2023-01-19T15:21:40.765Z,2.80
2023-01-19T15:26:43.348Z,2.80
2023-01-19T15:31:45.592Z,2.72
2023-01-19T15:36:47.668Z,2.80
2023-01-19T15:41:49.707Z,2.75
2023-01-19T15:46:54.480Z,2.67
2023-01-19T15:51:57.071Z,2.67
2023-01-19T15:56:59.268Z,2.69
2023-01-19T16:02:01.848Z,2.64
2023-01-19T16:07:04.091Z,2.62
2023-01-19T16:12:06.404Z,2.64
2023-01-19T16:17:08.550Z,2.68
2023-01-19T16:22:12.079Z,2.63
2023-01-19T16:27:14.158Z,2.58
2023-01-19T16:32:17.065Z,2.57
2023-01-19T16:37:19.171Z,2.59
2023-01-19T16:42:21.451Z,2.60
2023-01-19T16:47:23.545Z,2.57
2023-01-19T16:52:25.632Z,2.61
2023-01-19T16:57:28.828Z,2.57
2023-01-19T17:02:31.029Z,2.36
2023-01-19T17:07:33.166Z,2.51
2023-01-19T17:12:35.291Z,2.48
2023-01-19T17:17:38.159Z,2.37
2023-01-19T17:22:40.528Z,2.33
2023-01-19T17:27:42.590Z,2.42
2023-01-19T17:32:44.693Z,2.40
2023-01-19T17:37:46.803Z,2.33
2023-01-19T17:42:49.027Z,2.30
2023-01-19T17:47:51.270Z,2.24
2023-01-19T17:52:53.340Z,2.25
2023-01-19T17:57:55.494Z,2.27
2023-01-19T18:02:57.784Z,2.26
2023-01-19T18:08:00.581Z,2.25
2023-01-19T18:13:02.760Z,2.40
2023-01-19T18:18:05.030Z,2.31
2023-01-19T18:23:07.216Z,2.25
2023-01-19T18:28:09.572Z,2.32
2023-01-19T18:33:11.661Z,2.36
2023-01-19T18:38:14.074Z,2.34
2023-01-19T18:43:16.257Z,2.37
2023-01-19T18:48:18.649Z,2.37
2023-01-19T18:53:21.427Z,2.38
2023-01-19T18:58:24.750Z,2.49
2023-01-19T19:03:27.909Z,2.38
2023-01-19T19:08:30.127Z,2.43
2023-01-19T19:13:32.173Z,2.36
2023-01-19T19:18:35.511Z,2.40
2023-01-19T19:23:38.788Z,2.46
2023-01-19T19:28:40.948Z,2.51
2023-01-19T19:33:43.062Z,2.46
2023-01-19T19:38:47.580Z,2.46
2023-01-19T19:43:50.514Z,2.50
2023-01-19T19:48:53.485Z,2.52
2023-01-19T19:53:58.768Z,2.56
2023-01-19T19:59:01.278Z,2.60
2023-01-19T20:04:08.790Z,2.69
2023-01-19T20:09:14.860Z,2.64
2023-01-19T20:14:16.974Z,2.60
2023-01-19T20:19:19.065Z,2.53
2023-01-19T20:24:21.352Z,2.64
2023-01-19T20:29:23.665Z,2.70
2023-01-19T20:34:32.093Z,2.72
2023-01-19T20:39:36.851Z,2.70
2023-01-19T20:44:39.517Z,2.73
2023-01-19T20:49:42.517Z,2.69
2023-01-19T20:54:44.604Z,2.74
2023-01-19T20:59:46.637Z,2.69
2023-01-19T21:04:48.860Z,2.74
2023-01-19T21:09:50.889Z,2.76
2023-01-19T21:14:52.931Z,2.76
2023-01-19T21:19:55.155Z,2.79
2023-01-19T21:24:57.274Z,2.89
2023-01-19T21:30:00.983Z,2.83
2023-01-19T21:35:03.102Z,2.88
2023-01-19T21:40:06.671Z,3.03
2023-01-19T21:45:08.962Z,2.90
2023-01-19T21:50:11.461Z,2.93
2023-01-19T21:55:13.704Z,3.04
2023-01-19T22:00:16.649Z,2.94
2023-01-19T22:05:18.788Z,3.00
2023-01-19T22:10:20.977Z,3.06
2023-01-19T22:15:23.027Z,3.14
2023-01-19T22:20:25.137Z,3.11
2023-01-19T22:25:28.060Z,3.18
2023-01-19T22:30:30.392Z,3.16
2023-01-19T22:35:32.471Z,3.26
2023-01-19T22:40:34.598Z,3.32
2023-01-19T22:45:41.497Z,3.47
2023-01-19T22:50:43.586Z,3.41
2023-01-19T22:55:45.595Z,3.32
2023-01-19T23:00:47.784Z,3.28
2023-01-19T23:05:49.887Z,3.49
2023-01-19T23:10:51.937Z,3.35
2023-01-19T23:15:54.209Z,3.44
2023-01-19T23:20:56.552Z,3.44
2023-01-19T23:26:04.169Z,3.47
2023-01-19T23:31:34.403Z,3.68
2023-01-19T23:36:39.421Z,3.63
2023-01-19T23:41:41.751Z,3.62
2023-01-19T23:46:44.114Z,3.68
2023-01-19T23:51:46.182Z,3.68
2023-01-19T23:56:48.335Z,3.65
